Fairport Harbor, Ohio
Current Conditions -  °F | °C
As of 10:45 PM on Wednesday 26 Nov 2014 (Local Time) from KCGF Reporting Station
Broken Clouds Broken Clouds  
Wind Chill: 32°   Ceiling: 5000
Heat Index: 36°   Visibility: 10mi
Dew Point: 32°   Wind: 5mph
Humidity: 87%   Direction: 250°WSW
Pressure: 30.03"   Gusts: NA
Location:  41.6851°N, 81.2077°W
Report Text: KCGF 270345Z 25004KT 10SM SCT035 BKN050 02/00 A3003
Loading
Personal Weather Stations






























Interactive Weather Map New forecast layout! Learn more

10-Day Weather Forecast

Advertisements
Track Severe Weather on mobile